Time;durP1;ratioP1;P1;durP2;ratioP2;P2;SDS_P1;SDS_P2;PMS_P1;PMS_P2;Temp;Humidity;BMP_temperature;BMP_pressure;BME280_temperature;BME280_humidity;BME280_pressure;Samples;Min_cycle;Max_cycle;Signal;HPM_P1;HPM_P2
2022/08/04 00:00:36;;;;;;;2.53;1.50;;;22.90;92.60;;;;;;5074732;28;20585;-58
2022/08/04 00:03:12;;;;;;;1.67;1.30;;;22.90;92.80;;;;;;5074855;28;20228;-58
2022/08/04 00:05:53;;;;;;;3.97;1.30;;;22.80;93.00;;;;;;5074751;28;20216;-60
2022/08/04 00:08:30;;;;;;;6.00;1.50;;;22.80;93.00;;;;;;5075115;28;20200;-59
2022/08/04 00:11:00;;;;;;;1.27;1.15;;;22.80;93.00;;;;;;5074700;28;20274;-58
2022/08/04 00:13:30;;;;;;;1.50;1.40;;;22.80;93.40;;;;;;5074853;28;20231;-58
2022/08/04 00:15:59;;;;;;;1.60;1.40;;;22.70;93.50;;;;;;5074678;28;20209;-58
2022/08/04 00:18:34;;;;;;;2.17;1.15;;;22.70;93.60;;;;;;5074839;28;20664;-59
2022/08/04 00:21:05;;;;;;;1.40;1.20;;;22.70;93.80;;;;;;5074463;28;20211;-59
2022/08/04 00:23:34;;;;;;;1.58;1.30;;;22.60;93.90;;;;;;5074710;28;20225;-59
2022/08/04 00:26:01;;;;;;;2.58;1.42;;;22.60;94.10;;;;;;5074571;28;20335;-58
2022/08/04 00:28:29;;;;;;;2.17;1.30;;;22.60;94.10;;;;;;5074418;28;20243;-58
2022/08/04 00:30:55;;;;;;;3.28;1.50;;;22.60;94.00;;;;;;5074288;28;20687;-59
2022/08/04 00:33:23;;;;;;;4.72;1.33;;;22.60;94.10;;;;;;5074489;28;20751;-58
2022/08/04 00:35:51;;;;;;;1.67;1.30;;;22.60;94.40;;;;;;5074459;28;20554;-58
2022/08/04 00:38:19;;;;;;;3.25;1.58;;;22.40;94.80;;;;;;5074507;28;20213;-58
2022/08/04 00:40:56;;;;;;;3.33;1.50;;;22.50;94.70;;;;;;5074383;28;20581;-58
2022/08/04 00:43:31;;;;;;;1.67;1.40;;;22.50;94.80;;;;;;5074374;28;20232;-58
2022/08/04 00:46:23;;;;;;;1.67;1.27;;;22.50;95.00;;;;;;5074422;28;20225;-58
2022/08/04 00:49:36;;;;;;;2.10;1.40;;;22.50;95.10;;;;;;5074764;28;20228;-58
2022/08/04 00:52:18;;;;;;;1.30;1.20;;;22.40;95.60;;;;;;5074726;28;20710;-58
2022/08/04 00:55:03;;;;;;;3.58;1.45;;;22.40;95.70;;;;;;5074609;28;20221;-58
2022/08/04 00:57:41;;;;;;;2.13;1.40;;;22.30;95.70;;;;;;5073219;28;20200;-59
2022/08/04 01:00:10;;;;;;;3.13;1.30;;;22.40;95.70;;;;;;5074015;28;20382;-58
2022/08/04 01:02:51;;;;;;;1.40;1.30;;;22.30;95.80;;;;;;5073909;28;20665;-58
2022/08/04 01:05:25;;;;;;;3.50;1.30;;;22.30;95.90;;;;;;5073857;28;20228;-58
2022/08/04 01:08:35;;;;;;;2.28;1.20;;;22.30;95.90;;;;;;5073720;28;20208;-59
2022/08/04 01:11:10;;;;;;;4.03;1.40;;;22.30;96.00;;;;;;5073692;28;20208;-58
2022/08/04 01:14:04;;;;;;;1.20;1.10;;;22.20;96.20;;;;;;5073687;28;20232;-58
2022/08/04 01:16:33;;;;;;;1.92;1.08;;;22.20;96.20;;;;;;5073519;28;20296;-58
2022/08/04 01:19:02;;;;;;;1.85;1.30;;;22.20;96.30;;;;;;5073636;28;20574;-58
2022/08/04 01:21:57;;;;;;;1.40;1.30;;;22.30;96.00;;;;;;5073795;28;20219;-58
2022/08/04 01:24:33;;;;;;;3.00;1.42;;;22.30;96.00;;;;;;5073692;28;20275;-58
2022/08/04 01:27:03;;;;;;;1.25;1.15;;;22.30;96.00;;;;;;5073643;28;20228;-59
2022/08/04 01:29:35;;;;;;;2.53;1.60;;;22.30;95.80;;;;;;5073245;28;20586;-58
2022/08/04 01:32:05;;;;;;;3.03;1.50;;;22.30;95.80;;;;;;5073267;28;20299;-58
2022/08/04 01:34:39;;;;;;;1.70;1.30;;;22.30;95.70;;;;;;5073383;28;20611;-58
2022/08/04 01:37:16;;;;;;;4.35;1.42;;;22.30;95.90;;;;;;5073336;28;20203;-59
2022/08/04 01:39:50;;;;;;;3.10;1.50;;;22.30;96.00;;;;;;5073167;28;20223;-58
2022/08/04 01:42:19;;;;;;;1.30;1.20;;;22.30;95.90;;;;;;5073219;28;20614;-58
2022/08/04 01:44:49;;;;;;;1.40;1.27;;;22.20;95.90;;;;;;5073010;28;20233;-58
2022/08/04 01:47:20;;;;;;;1.55;1.15;;;22.20;95.80;;;;;;5073582;28;20212;-58
2022/08/04 01:49:49;;;;;;;4.03;1.25;;;22.20;95.70;;;;;;5072706;28;20205;-58
2022/08/04 01:52:18;;;;;;;3.15;1.38;;;22.20;95.70;;;;;;5073208;28;20208;-61
2022/08/04 01:54:47;;;;;;;1.45;1.30;;;22.30;95.60;;;;;;5072803;28;20712;-59
2022/08/04 01:57:16;;;;;;;3.50;1.30;;;22.30;95.50;;;;;;5072696;28;20197;-58
2022/08/04 01:59:47;;;;;;;4.13;1.23;;;22.30;95.50;;;;;;5072621;28;20709;-58
2022/08/04 02:02:14;;;;;;;1.48;1.38;;;22.20;95.50;;;;;;5072754;28;20236;-58
2022/08/04 02:04:42;;;;;;;1.90;1.30;;;22.10;95.60;;;;;;5072475;28;20727;-58
2022/08/04 02:07:21;;;;;;;1.35;1.20;;;22.10;95.80;;;;;;5072564;28;20232;-58
2022/08/04 02:10:06;;;;;;;2.28;1.30;;;22.10;95.30;;;;;;5072823;28;20205;-59
2022/08/04 02:12:47;;;;;;;4.82;1.30;;;22.20;95.20;;;;;;5072445;28;20204;-58
2022/08/04 02:15:25;;;;;;;1.27;1.17;;;22.30;94.90;;;;;;5072285;28;20598;-58
2022/08/04 02:18:01;;;;;;;3.30;1.35;;;22.30;94.40;;;;;;5072763;28;20209;-58
2022/08/04 02:20:33;;;;;;;1.80;1.30;;;22.30;94.40;;;;;;5072186;28;20204;-58
2022/08/04 02:23:01;;;;;;;1.90;1.38;;;22.40;94.30;;;;;;5072477;28;20254;-58
2022/08/04 02:25:32;;;;;;;2.58;1.10;;;22.50;93.90;;;;;;5072474;28;20228;-56
2022/08/04 02:28:14;;;;;;;2.88;1.20;;;22.50;93.80;;;;;;5072402;28;20209;-57
2022/08/04 02:30:52;;;;;;;1.88;1.13;;;22.60;93.50;;;;;;5072087;28;20669;-58
2022/08/04 02:33:26;;;;;;;0.98;0.88;;;22.70;93.50;;;;;;5071867;28;20630;-58
2022/08/04 02:35:58;;;;;;;2.30;1.80;;;22.80;93.30;;;;;;5072087;28;20201;-58
2022/08/04 02:38:40;;;;;;;2.10;1.35;;;22.90;93.90;;;;;;5072340;28;20209;-58
2022/08/04 02:41:09;;;;;;;2.42;1.23;;;22.90;94.60;;;;;;5072087;28;20283;-58
2022/08/04 02:43:38;;;;;;;2.50;1.70;;;22.90;94.90;;;;;;5071737;28;20639;-58
2022/08/04 02:46:06;;;;;;;2.50;2.00;;;22.90;95.30;;;;;;5071624;28;20228;-58
2022/08/04 02:48:36;;;;;;;1.60;1.50;;;22.80;95.70;;;;;;5072170;28;20215;-58
2022/08/04 02:51:03;;;;;;;3.55;1.73;;;22.70;95.80;;;;;;5071603;28;20665;-58
2022/08/04 02:53:33;;;;;;;2.25;1.73;;;22.70;96.20;;;;;;5071984;28;20231;-58
2022/08/04 02:56:02;;;;;;;6.13;2.08;;;22.60;96.40;;;;;;5071995;28;20205;-58
2022/08/04 02:58:33;;;;;;;2.17;1.98;;;22.50;96.70;;;;;;5071975;28;20216;-58
2022/08/04 03:01:00;;;;;;;2.00;1.80;;;22.40;97.20;;;;;;5072081;28;20208;-58
2022/08/04 03:03:37;;;;;;;2.00;1.77;;;22.30;97.50;;;;;;5071784;28;20608;-58
2022/08/04 03:06:29;;;;;;;2.72;1.60;;;22.20;97.70;;;;;;5071755;28;20221;-58
2022/08/04 03:09:21;;;;;;;2.50;2.08;;;22.20;98.10;;;;;;5071669;28;20208;-58
2022/08/04 03:12:14;;;;;;;2.97;2.15;;;22.10;98.40;;;;;;5071886;28;20213;-58
2022/08/04 03:15:07;;;;;;;4.80;2.50;;;22.10;98.80;;;;;;5072386;28;20275;-58
2022/08/04 03:18:09;;;;;;;6.05;2.20;;;22.00;99.00;;;;;;5072684;28;20205;-58
2022/08/04 03:21:13;;;;;;;7.65;4.82;;;22.00;99.60;;;;;;5052211;28;20321;-58
2022/08/04 03:24:12;;;;;;;2.80;2.55;;;21.90;99.90;;;;;;5075599;28;20229;-58
2022/08/04 03:27:19;;;;;;;3.55;3.03;;;21.90;99.90;;;;;;5075690;28;20228;-58
2022/08/04 03:30:08;;;;;;;5.68;4.07;;;21.80;99.90;;;;;;5075606;28;20208;-58
2022/08/04 03:33:09;;;;;;;5.55;2.80;;;21.70;99.90;;;;;;5075916;28;20210;-58
2022/08/04 03:36:11;;;;;;;3.92;2.17;;;21.70;99.90;;;;;;5075637;28;20227;-58
2022/08/04 03:39:07;;;;;;;5.07;2.40;;;21.70;99.90;;;;;;5075657;28;20235;-59
2022/08/04 03:41:54;;;;;;;5.20;4.35;;;21.60;99.90;;;;;;5075206;28;20258;-58
2022/08/04 03:44:55;;;;;;;4.15;2.58;;;21.60;99.90;;;;;;5075767;28;20233;-57
2022/08/04 03:47:56;;;;;;;4.13;2.35;;;21.60;99.90;;;;;;5075291;28;20253;-57
2022/08/04 03:53:07;;;;;;;4.20;2.42;;;21.60;99.90;;;;;;5052866;28;20205;-57
2022/08/04 03:53:45;;;;;;;3.17;2.53;;;21.50;99.90;;;;;;5075057;28;20221;-57
2022/08/04 03:56:38;;;;;;;4.60;2.25;;;21.50;99.90;;;;;;5075382;28;20201;-57
2022/08/04 03:59:31;;;;;;;2.95;2.03;;;21.50;99.90;;;;;;5075629;28;20531;-57
2022/08/04 04:02:20;;;;;;;2.33;1.73;;;21.50;99.90;;;;;;5075320;28;20224;-56
2022/08/04 04:05:21;;;;;;;2.67;1.80;;;21.40;99.90;;;;;;5075172;28;20264;-57
2022/08/04 04:08:15;;;;;;;3.58;2.22;;;21.40;99.90;;;;;;5075302;28;20228;-58
2022/08/04 04:11:11;;;;;;;2.08;1.88;;;21.30;99.90;;;;;;5074855;28;20283;-56
2022/08/04 04:13:59;;;;;;;2.67;2.00;;;21.30;99.90;;;;;;5074946;28;20646;-56
2022/08/04 04:16:36;;;;;;;3.95;2.50;;;21.30;99.90;;;;;;5074822;28;20208;-56
2022/08/04 04:19:31;;;;;;;3.17;2.25;;;21.30;99.90;;;;;;5074912;28;20204;-56
2022/08/04 04:22:22;;;;;;;2.67;2.17;;;21.40;99.90;;;;;;5074684;28;20205;-57
2022/08/04 04:25:14;;;;;;;3.88;2.42;;;21.40;99.90;;;;;;5054820;28;20255;-59
2022/08/04 04:27:52;;;;;;;7.55;4.80;;;21.40;99.90;;;;;;5074697;28;20225;-57
2022/08/04 04:30:26;;;;;;;5.78;3.25;;;21.40;99.90;;;;;;5074586;28;20209;-56
2022/08/04 04:33:03;;;;;;;5.35;3.30;;;21.50;99.90;;;;;;5073514;28;20205;-56
2022/08/04 04:35:37;;;;;;;2.47;2.20;;;21.50;99.90;;;;;;5074441;28;20216;-57
2022/08/04 04:38:33;;;;;;;7.32;1.67;;;21.60;99.90;;;;;;5074414;28;20212;-57
2022/08/04 04:41:23;;;;;;;3.45;1.60;;;21.60;99.90;;;;;;5074196;28;20201;-58
2022/08/04 04:44:22;;;;;;;3.85;1.63;;;21.60;99.90;;;;;;5074025;28;20241;-57
2022/08/04 04:47:01;;;;;;;3.10;1.70;;;21.70;99.90;;;;;;5056109;28;20224;-57
2022/08/04 04:49:34;;;;;;;1.65;1.30;;;21.70;99.90;;;;;;5074134;28;20677;-57
2022/08/04 04:52:09;;;;;;;2.00;1.60;;;21.80;99.90;;;;;;5074267;28;20270;-57
2022/08/04 04:54:40;;;;;;;5.80;1.60;;;21.90;99.90;;;;;;5073856;28;20220;-57
2022/08/04 04:57:13;;;;;;;1.92;1.67;;;21.90;99.90;;;;;;5073828;28;20221;-57
2022/08/04 04:59:48;;;;;;;2.30;1.73;;;21.90;99.90;;;;;;5074061;28;20205;-57
2022/08/04 05:02:40;;;;;;;3.90;2.05;;;22.00;99.90;;;;;;5074034;28;20213;-57
2022/08/04 05:05:21;;;;;;;2.28;1.60;;;21.90;99.90;;;;;;5074050;28;20208;-57
2022/08/04 05:08:01;;;;;;;2.58;1.60;;;21.90;99.90;;;;;;5073780;28;20315;-57
2022/08/04 05:10:45;;;;;;;4.20;1.80;;;22.00;99.90;;;;;;5074142;28;20584;-57
2022/08/04 05:13:26;;;;;;;2.40;1.73;;;22.00;99.90;;;;;;5074026;28;20232;-57
2022/08/04 05:15:56;;;;;;;4.25;1.75;;;22.00;99.90;;;;;;5074053;28;20208;-57
2022/08/04 05:18:30;;;;;;;3.22;1.63;;;22.10;99.90;;;;;;5074036;28;20300;-60
2022/08/04 05:21:03;;;;;;;1.55;1.45;;;22.20;99.90;;;;;;5073868;28;20713;-57
2022/08/04 05:23:33;;;;;;;6.32;1.70;;;22.30;99.90;;;;;;5073908;28;20235;-57
2022/08/04 05:26:04;;;;;;;8.25;1.80;;;22.40;99.90;;;;;;5074411;28;20204;-57
2022/08/04 05:28:36;;;;;;;4.35;1.88;;;22.40;99.90;;;;;;5074101;28;20604;-58
2022/08/04 05:31:06;;;;;;;3.90;1.92;;;22.40;99.90;;;;;;5074174;28;20205;-57
2022/08/04 05:33:39;;;;;;;3.17;1.65;;;22.50;99.90;;;;;;5074373;28;20248;-58
2022/08/04 05:36:10;;;;;;;2.90;1.60;;;22.60;99.90;;;;;;5074936;28;20262;-57
2022/08/04 05:38:39;;;;;;;3.83;1.50;;;22.70;99.90;;;;;;5074430;28;20691;-57
2022/08/04 05:41:08;;;;;;;2.53;1.50;;;22.90;99.90;;;;;;5074681;28;20200;-57
2022/08/04 05:43:37;;;;;;;2.22;1.52;;;23.10;99.90;;;;;;5074278;28;20242;-58
2022/08/04 05:46:04;;;;;;;2.78;1.33;;;23.40;99.90;;;;;;5074497;28;20209;-57
2022/08/04 05:48:34;;;;;;;2.45;1.40;;;24.70;99.90;;;;;;5074920;28;20680;-58
2022/08/04 05:51:03;;;;;;;3.00;1.77;;;27.00;96.10;;;;;;5074205;28;20244;-57
2022/08/04 05:53:31;;;;;;;2.55;1.90;;;29.50;90.00;;;;;;5074323;28;20227;-58
2022/08/04 05:55:59;;;;;;;2.70;1.40;;;31.50;80.70;;;;;;5074356;28;20205;-58
2022/08/04 05:58:26;;;;;;;4.95;1.70;;;33.20;72.60;;;;;;5074586;28;20205;-57
2022/08/04 06:00:55;;;;;;;3.40;1.48;;;34.60;66.60;;;;;;5074044;28;20209;-58
2022/08/04 06:03:23;;;;;;;3.80;1.58;;;36.00;61.90;;;;;;5075178;28;20263;-57
2022/08/04 06:05:52;;;;;;;4.35;1.52;;;37.30;57.70;;;;;;5075635;28;20205;-57
2022/08/04 06:08:19;;;;;;;4.25;1.60;;;38.30;53.90;;;;;;5075310;28;20225;-57
2022/08/04 06:10:47;;;;;;;3.50;1.55;;;39.00;51.60;;;;;;5074939;28;20299;-57
2022/08/04 06:13:18;;;;;;;9.18;1.73;;;39.60;50.70;;;;;;5074510;28;20220;-57
2022/08/04 06:15:47;;;;;;;4.20;1.40;;;40.10;49.20;;;;;;5074371;28;20209;-57
2022/08/04 06:18:15;;;;;;;2.97;1.50;;;40.20;48.30;;;;;;5073817;28;20227;-57
2022/08/04 06:20:44;;;;;;;2.65;1.40;;;40.20;47.80;;;;;;5073892;28;20472;-57
2022/08/04 06:23:16;;;;;;;2.42;1.30;;;40.50;47.00;;;;;;5072564;28;20228;-57
2022/08/04 06:25:47;;;;;;;3.78;1.27;;;40.60;46.20;;;;;;5072532;28;20223;-58
2022/08/04 06:28:15;;;;;;;3.90;1.40;;;41.10;45.70;;;;;;5072630;28;20227;-57
2022/08/04 06:30:46;;;;;;;1.63;1.00;;;41.40;44.00;;;;;;5072806;28;20208;-57
2022/08/04 06:33:23;;;;;;;3.00;1.38;;;41.80;43.80;;;;;;5071968;28;20663;-57
2022/08/04 06:35:52;;;;;;;3.97;1.40;;;42.00;43.00;;;;;;5072242;28;20219;-57
2022/08/04 06:38:21;;;;;;;3.67;1.00;;;42.20;42.40;;;;;;5072506;28;20648;-57
2022/08/04 06:40:48;;;;;;;5.07;1.55;;;42.60;41.50;;;;;;5072184;28;20512;-57
2022/08/04 06:43:15;;;;;;;3.13;1.42;;;42.90;41.30;;;;;;5072150;28;20244;-58
2022/08/04 06:45:43;;;;;;;10.60;5.70;;;43.30;41.00;;;;;;5073283;28;20227;-57
2022/08/04 06:48:14;;;;;;;7.40;1.90;;;43.70;42.20;;;;;;5072902;28;20634;-57
2022/08/04 06:50:44;;;;;;;4.13;1.60;;;44.00;42.40;;;;;;5072771;28;20211;-57
2022/08/04 06:53:11;;;;;;;2.40;1.42;;;44.10;41.80;;;;;;5072571;28;20228;-57
2022/08/04 06:55:42;;;;;;;8.20;1.90;;;44.20;41.60;;;;;;5071776;28;20212;-57
2022/08/04 06:58:11;;;;;;;5.10;1.55;;;44.40;41.30;;;;;;5071837;28;20200;-57
2022/08/04 07:00:39;;;;;;;5.03;1.90;;;44.40;40.90;;;;;;5071946;28;20212;-58
2022/08/04 07:03:06;;;;;;;4.28;1.90;;;44.90;40.40;;;;;;5072014;28;20227;-58
2022/08/04 07:05:34;;;;;;;2.90;1.52;;;45.40;39.30;;;;;;5072065;28;20227;-58
2022/08/04 07:08:01;;;;;;;2.33;1.40;;;45.80;38.90;;;;;;5072321;28;20231;-59
2022/08/04 07:10:29;;;;;;;5.82;1.50;;;46.50;38.30;;;;;;5071973;28;20211;-58
2022/08/04 07:12:59;;;;;;;3.05;1.40;;;47.50;36.60;;;;;;5072510;28;20291;-61
2022/08/04 07:15:26;;;;;;;4.38;1.30;;;48.20;35.20;;;;;;5072616;28;20218;-60
2022/08/04 07:17:58;;;;;;;4.97;1.17;;;48.80;34.00;;;;;;5085732;28;20196;-61
2022/08/04 07:20:25;;;;;;;5.28;1.20;;;49.20;33.20;;;;;;5090263;28;20522;-60
2022/08/04 07:22:53;;;;;;;3.50;1.00;;;49.70;32.60;;;;;;5091144;28;20203;-59
2022/08/04 07:25:20;;;;;;;4.28;1.40;;;50.00;32.00;;;;;;5086185;28;20212;-58
2022/08/04 07:27:47;;;;;;;1.58;1.10;;;50.40;31.90;;;;;;5087739;28;20223;-59
2022/08/04 07:30:16;;;;;;;5.72;3.72;;;51.00;30.50;;;;;;5090028;28;20210;-60
2022/08/04 07:32:44;;;;;;;1.13;1.00;;;50.80;30.80;;;;;;5090948;28;20199;-58
2022/08/04 07:35:12;;;;;;;3.80;1.00;;;50.10;31.30;;;;;;5091336;28;20751;-61
2022/08/04 07:37:39;;;;;;;3.13;1.25;;;50.20;31.00;;;;;;5091292;28;20196;-65
2022/08/04 07:40:07;;;;;;;1.35;1.08;;;50.80;30.70;;;;;;5091927;28;20203;-64
2022/08/04 07:42:35;;;;;;;5.38;1.20;;;51.40;30.10;;;;;;5092310;28;20212;-58
2022/08/04 07:45:01;;;;;;;3.97;1.10;;;51.80;29.80;;;;;;5091691;28;20741;-65
2022/08/04 07:47:30;;;;;;;2.55;1.27;;;52.10;29.60;;;;;;5092732;28;20228;-61
2022/08/04 07:49:57;;;;;;;5.53;1.10;;;52.20;29.30;;;;;;5092087;28;20211;-61
2022/08/04 07:52:24;;;;;;;1.27;1.17;;;51.90;29.40;;;;;;5091646;28;20207;-66
2022/08/04 07:54:52;;;;;;;4.35;1.30;;;51.70;29.30;;;;;;5091799;28;20232;-57
2022/08/04 07:57:20;;;;;;;4.15;1.02;;;51.50;29.50;;;;;;5091063;28;20675;-58
2022/08/04 07:59:47;;;;;;;3.17;1.20;;;51.50;29.30;;;;;;5091172;28;20291;-57
2022/08/04 08:02:15;;;;;;;3.60;1.30;;;51.10;29.50;;;;;;5090830;28;20203;-57
2022/08/04 08:04:44;;;;;;;3.28;1.20;;;50.40;30.00;;;;;;5091162;28;20223;-57
2022/08/04 08:07:11;;;;;;;1.70;1.10;;;49.80;30.20;;;;;;5093800;28;20492;-57
2022/08/04 08:09:38;;;;;;;1.25;1.02;;;49.40;30.60;;;;;;5094807;28;20534;-58
2022/08/04 08:12:07;;;;;;;1.48;1.10;;;49.20;30.40;;;;;;5094938;28;20207;-57
2022/08/04 08:14:35;;;;;;;3.67;1.00;;;49.30;30.50;;;;;;5094814;28;20309;-57
2022/08/04 08:17:03;;;;;;;2.13;1.17;;;49.40;30.20;;;;;;5094371;28;20628;-57
2022/08/04 08:19:30;;;;;;;4.32;1.30;;;49.60;30.20;;;;;;5094500;28;20692;-57
2022/08/04 08:21:58;;;;;;;2.75;1.10;;;49.80;30.10;;;;;;5094475;28;20223;-57
2022/08/04 08:24:26;;;;;;;2.20;1.23;;;49.80;30.00;;;;;;5094139;28;20253;-57
2022/08/04 08:26:52;;;;;;;5.25;1.30;;;49.70;30.20;;;;;;5094303;28;20199;-58
2022/08/04 08:29:20;;;;;;;3.05;0.95;;;49.70;30.00;;;;;;5094737;28;20210;-61
2022/08/04 08:31:47;;;;;;;2.63;1.23;;;49.50;30.00;;;;;;5094756;28;20211;-60
2022/08/04 08:34:14;;;;;;;1.20;0.95;;;49.30;30.40;;;;;;5095158;28;20223;-62
2022/08/04 08:36:46;;;;;;;1.23;1.08;;;49.30;30.30;;;;;;5094860;28;20206;-59
2022/08/04 08:39:18;;;;;;;3.35;1.38;;;48.90;30.60;;;;;;5093785;28;20576;-61
2022/08/04 08:42:14;;;;;;;2.67;1.30;;;48.10;31.30;;;;;;5093610;28;20203;-59
2022/08/04 08:45:29;;;;;;;3.17;1.35;;;46.70;32.30;;;;;;5074039;28;20620;-59
2022/08/04 08:48:22;;;;;;;4.63;1.30;;;44.40;34.40;;;;;;4972253;28;20230;-60
2022/08/04 08:51:05;;;;;;;1.70;1.50;;;42.50;36.10;;;;;;5073986;28;20208;-60
2022/08/04 08:53:47;;;;;;;2.50;1.50;;;41.10;37.60;;;;;;5074626;28;20239;-60
2022/08/04 08:56:26;;;;;;;3.28;1.38;;;40.10;38.30;;;;;;5073728;28;20200;-61
2022/08/04 08:59:22;;;;;;;2.22;1.40;;;39.30;39.20;;;;;;5073518;28;20408;-61
2022/08/04 09:01:59;;;;;;;1.70;1.30;;;38.50;40.00;;;;;;5073653;28;20301;-59
2022/08/04 09:04:39;;;;;;;2.30;1.30;;;38.00;40.40;;;;;;5074730;28;20247;-59
2022/08/04 09:07:32;;;;;;;1.38;1.05;;;37.50;41.30;;;;;;5074412;28;20208;-58
2022/08/04 09:10:08;;;;;;;5.97;1.50;;;37.10;41.80;;;;;;5074735;28;20205;-58
2022/08/04 09:12:45;;;;;;;3.17;1.30;;;36.70;42.20;;;;;;5074059;28;20204;-58
2022/08/04 09:15:15;;;;;;;2.30;1.40;;;36.40;42.80;;;;;;5074407;28;20559;-58
2022/08/04 09:17:48;;;;;;;2.38;1.60;;;36.00;42.80;;;;;;5073475;28;20205;-58
2022/08/04 09:20:22;;;;;;;2.72;1.60;;;35.70;43.80;;;;;;5074492;28;20205;-59
2022/08/04 09:22:54;;;;;;;2.67;1.40;;;35.50;43.80;;;;;;5074247;28;20237;-58
2022/08/04 09:25:24;;;;;;;2.38;1.40;;;35.40;43.50;;;;;;5073865;28;20201;-59
2022/08/04 09:27:54;;;;;;;3.05;1.67;;;35.30;44.20;;;;;;5070606;28;20278;-60
2022/08/04 09:30:29;;;;;;;2.80;1.60;;;35.00;44.30;;;;;;5087990;28;20200;-59
2022/08/04 09:33:07;;;;;;;2.08;1.25;;;34.90;45.00;;;;;;5092309;28;20199;-58
2022/08/04 09:35:41;;;;;;;2.05;1.35;;;34.90;45.50;;;;;;5092691;28;20254;-58
2022/08/04 09:38:18;;;;;;;2.05;1.30;;;34.90;45.00;;;;;;5092711;28;20660;-58
2022/08/04 09:40:53;;;;;;;3.35;1.48;;;35.00;45.00;;;;;;5092023;28;20218;-58
2022/08/04 09:43:36;;;;;;;2.22;1.40;;;35.00;45.10;;;;;;5093087;28;20239;-59
2022/08/04 09:46:09;;;;;;;1.58;1.48;;;34.90;45.20;;;;;;5092695;28;20265;-59
2022/08/04 09:48:47;;;;;;;2.70;1.52;;;34.80;45.70;;;;;;5092499;28;20219;-60
2022/08/04 09:51:25;;;;;;;4.65;1.58;;;35.00;45.30;;;;;;5092710;28;20208;-61
2022/08/04 09:54:05;;;;;;;2.35;1.80;;;35.00;45.40;;;;;;5092983;28;20231;-63
2022/08/04 09:56:39;;;;;;;6.97;1.70;;;35.10;45.20;;;;;;5092760;28;20211;-58
2022/08/04 09:59:19;;;;;;;4.88;1.70;;;35.20;45.00;;;;;;5091815;28;20200;-61
2022/08/04 10:01:50;;;;;;;2.42;1.60;;;35.40;45.00;;;;;;5092538;28;20203;-61
2022/08/04 10:04:18;;;;;;;2.83;1.40;;;35.40;44.80;;;;;;5092662;28;20228;-60
2022/08/04 10:07:29;;;;;;;2.13;1.40;;;35.50;44.70;;;;;;5091998;28;20208;-60
2022/08/04 10:10:10;;;;;;;1.75;1.13;;;35.40;44.90;;;;;;5053978;28;20652;-59
2022/08/04 10:12:48;;;;;;;2.65;1.52;;;35.40;44.60;;;;;;5091855;28;20212;-59
2022/08/04 10:15:20;;;;;;;1.73;1.60;;;35.30;44.60;;;;;;5092089;28;20204;-57
2022/08/04 10:18:15;;;;;;;3.15;1.75;;;35.30;45.00;;;;;;5091683;28;20292;-60
2022/08/04 10:21:04;;;;;;;3.67;1.70;;;35.30;45.20;;;;;;5087553;28;20201;-60
2022/08/04 10:23:40;;;;;;;2.03;1.73;;;35.40;45.30;;;;;;5089929;28;20216;-58
2022/08/04 10:26:19;;;;;;;1.63;1.50;;;35.50;45.50;;;;;;5091796;28;20208;-57
2022/08/04 10:28:55;;;;;;;3.35;1.60;;;35.60;45.40;;;;;;5091655;28;20235;-62
2022/08/04 10:31:29;;;;;;;2.90;1.30;;;35.70;45.00;;;;;;5092390;28;20203;-57
2022/08/04 10:34:01;;;;;;;2.25;1.58;;;35.80;44.90;;;;;;5092614;28;20224;-57
2022/08/04 10:36:32;;;;;;;1.40;1.25;;;35.80;44.90;;;;;;5092525;28;20691;-57
2022/08/04 10:39:07;;;;;;;5.15;1.55;;;35.70;44.80;;;;;;5092610;28;20236;-57
2022/08/04 10:41:42;;;;;;;1.65;1.50;;;35.70;45.30;;;;;;5092594;28;20208;-58
2022/08/04 10:44:23;;;;;;;1.67;1.58;;;35.80;45.00;;;;;;5092469;28;20231;-57
2022/08/04 10:46:55;;;;;;;1.83;1.50;;;35.90;44.90;;;;;;5092909;28;20211;-57
2022/08/04 10:49:24;;;;;;;6.22;1.92;;;35.80;43.90;;;;;;5093018;28;20235;-57
2022/08/04 10:51:54;;;;;;;6.68;2.70;;;35.80;43.60;;;;;;5092928;28;20230;-57
2022/08/04 10:54:27;;;;;;;1.60;1.40;;;36.00;43.60;;;;;;5093212;28;20224;-57
2022/08/04 10:56:58;;;;;;;1.77;1.38;;;36.20;43.80;;;;;;5093450;28;20211;-56
2022/08/04 10:59:32;;;;;;;1.45;1.23;;;36.20;42.70;;;;;;5092357;28;20196;-58
2022/08/04 11:02:12;;;;;;;2.67;1.30;;;36.20;42.20;;;;;;5091932;28;20204;-59
2022/08/04 11:04:46;;;;;;;3.10;1.45;;;36.30;42.20;;;;;;5092064;28;20729;-59
2022/08/04 11:07:15;;;;;;;2.22;1.30;;;36.40;41.70;;;;;;5092099;28;20211;-58
2022/08/04 11:09:43;;;;;;;3.38;1.40;;;36.60;41.20;;;;;;5092023;28;20349;-58
2022/08/04 11:12:16;;;;;;;3.25;1.33;;;36.70;41.10;;;;;;5091774;28;20208;-58
2022/08/04 11:14:50;;;;;;;3.13;1.48;;;36.60;40.80;;;;;;5092943;28;20232;-58
2022/08/04 11:17:24;;;;;;;3.17;1.67;;;36.70;41.30;;;;;;5092254;28;20258;-58
2022/08/04 11:20:01;;;;;;;1.55;1.08;;;36.80;41.10;;;;;;5092483;28;20317;-58
2022/08/04 11:22:29;;;;;;;2.60;1.30;;;37.00;40.70;;;;;;5092036;28;20207;-58
2022/08/04 11:25:06;;;;;;;1.60;1.27;;;37.00;40.20;;;;;;5091642;28;20235;-58
2022/08/04 11:27:42;;;;;;;1.40;1.30;;;36.90;40.20;;;;;;5092594;28;20211;-58
2022/08/04 11:30:12;;;;;;;2.85;1.25;;;36.90;40.40;;;;;;5092014;28;20230;-58
2022/08/04 11:32:46;;;;;;;2.20;1.27;;;36.90;40.40;;;;;;5092010;28;20200;-58
2022/08/04 11:35:23;;;;;;;1.15;1.05;;;37.00;40.00;;;;;;5092128;28;20623;-58
2022/08/04 11:38:01;;;;;;;3.28;1.00;;;37.00;38.30;;;;;;5092606;28;20413;-58
2022/08/04 11:40:36;;;;;;;1.70;1.20;;;37.00;39.10;;;;;;5092077;28;20273;-58
2022/08/04 11:43:09;;;;;;;1.40;1.17;;;37.10;39.50;;;;;;5096292;28;20223;-58
2022/08/04 11:45:40;;;;;;;2.03;1.40;;;37.20;39.20;;;;;;5096050;28;20207;-58
2022/08/04 11:48:13;;;;;;;2.33;1.63;;;37.30;39.40;;;;;;5096080;28;20286;-57
2022/08/04 11:50:43;;;;;;;5.45;1.38;;;37.40;39.70;;;;;;5095550;28;20216;-58
2022/08/04 11:53:15;;;;;;;3.28;1.30;;;37.50;39.80;;;;;;5095647;28;20273;-58
2022/08/04 11:55:44;;;;;;;1.70;1.20;;;37.40;40.10;;;;;;5095527;28;20287;-58
2022/08/04 11:58:10;;;;;;;3.60;1.35;;;37.40;40.00;;;;;;5095791;28;20204;-58
2022/08/04 12:00:41;;;;;;;1.33;1.23;;;37.40;39.60;;;;;;5094805;28;20200;-58
2022/08/04 12:03:22;;;;;;;2.13;1.25;;;37.40;39.80;;;;;;5095113;28;20635;-57
2022/08/04 12:06:06;;;;;;;1.48;1.23;;;37.50;39.70;;;;;;5095352;28;20208;-58
2022/08/04 12:08:57;;;;;;;1.52;1.42;;;37.50;40.00;;;;;;5095005;28;20227;-57
2022/08/04 12:11:34;;;;;;;2.75;1.20;;;37.50;40.10;;;;;;5094930;28;20571;-58
2022/08/04 12:14:14;;;;;;;3.28;1.42;;;37.50;39.80;;;;;;5094920;28;20228;-58
2022/08/04 12:16:48;;;;;;;2.80;1.27;;;37.70;39.40;;;;;;5092305;28;20524;-58
2022/08/04 12:19:23;;;;;;;3.47;1.30;;;37.80;39.20;;;;;;5093310;28;20196;-60
2022/08/04 12:21:54;;;;;;;4.45;1.58;;;37.80;39.50;;;;;;5093465;28;20204;-59
2022/08/04 12:24:25;;;;;;;1.67;1.45;;;38.00;39.80;;;;;;5094146;28;20224;-60
2022/08/04 12:26:56;;;;;;;1.48;1.38;;;38.10;39.70;;;;;;5092904;28;20204;-59
2022/08/04 12:29:27;;;;;;;2.75;1.55;;;38.30;39.60;;;;;;5090270;28;20224;-60
2022/08/04 12:31:57;;;;;;;1.67;1.45;;;38.40;39.40;;;;;;5093227;28;20619;-59
2022/08/04 12:34:33;;;;;;;2.60;1.80;;;38.50;39.10;;;;;;5092249;28;20232;-61
2022/08/04 12:37:06;;;;;;;3.53;1.60;;;38.60;39.00;;;;;;5094051;28;20204;-62
2022/08/04 12:39:37;;;;;;;2.30;1.63;;;38.70;38.80;;;;;;5095068;28;20208;-62
2022/08/04 12:42:17;;;;;;;2.60;1.90;;;38.80;39.00;;;;;;5093210;28;20208;-58
2022/08/04 12:44:48;;;;;;;2.70;1.70;;;38.80;38.70;;;;;;5092712;28;20649;-60
2022/08/04 12:47:17;;;;;;;2.95;1.60;;;38.80;38.80;;;;;;5093176;28;20608;-60
2022/08/04 12:49:49;;;;;;;1.60;1.50;;;38.80;38.70;;;;;;5093237;28;20228;-59
2022/08/04 12:52:19;;;;;;;2.67;1.50;;;38.80;37.90;;;;;;5092049;28;20204;-61
2022/08/04 12:54:51;;;;;;;2.05;1.75;;;38.70;38.10;;;;;;5093227;28;20224;-61
2022/08/04 12:57:20;;;;;;;1.55;1.45;;;38.40;38.60;;;;;;5091264;28;20690;-59
2022/08/04 12:59:47;;;;;;;1.95;1.33;;;38.20;38.90;;;;;;5091968;28;20227;-59
2022/08/04 13:02:18;;;;;;;3.17;1.55;;;38.10;39.10;;;;;;5092866;28;20212;-58
2022/08/04 13:04:47;;;;;;;1.92;1.70;;;38.10;39.20;;;;;;5093154;28;20231;-60
2022/08/04 13:07:19;;;;;;;2.92;1.73;;;38.00;39.50;;;;;;5093250;28;20220;-59
2022/08/04 13:09:47;;;;;;;2.65;1.48;;;38.10;39.20;;;;;;5092619;28;20277;-59
2022/08/04 13:12:15;;;;;;;1.70;1.50;;;38.20;39.00;;;;;;5090792;28;20208;-60
2022/08/04 13:14:43;;;;;;;1.67;1.55;;;38.40;39.10;;;;;;5092390;28;20220;-58
2022/08/04 13:17:11;;;;;;;4.35;1.80;;;38.30;39.00;;;;;;5092653;28;20236;-59
2022/08/04 13:19:38;;;;;;;2.65;1.75;;;38.20;38.70;;;;;;5092732;28;20207;-58
2022/08/04 13:22:06;;;;;;;1.60;1.50;;;37.80;39.00;;;;;;5092141;28;20700;-59
2022/08/04 13:24:35;;;;;;;1.67;1.50;;;37.60;39.10;;;;;;5092453;28;20235;-59
2022/08/04 13:27:10;;;;;;;1.58;1.48;;;37.70;39.30;;;;;;5092163;28;20334;-60
2022/08/04 13:29:39;;;;;;;2.20;1.15;;;37.80;39.50;;;;;;5092535;28;20226;-58